createdAt,value
2023-04-01T00:01:24.365Z,98108.60
2023-04-01T00:03:57.448Z,98102.02
2023-04-01T00:06:28.085Z,98105.52
2023-04-01T00:08:56.297Z,98104.86
2023-04-01T00:11:28.404Z,98113.33
2023-04-01T00:13:56.631Z,98107.91
2023-04-01T00:16:27.784Z,98108.11
2023-04-01T00:18:58.435Z,98104.09
2023-04-01T00:21:26.687Z,98101.45
2023-04-01T00:23:57.402Z,98103.50
2023-04-01T00:26:26.344Z,98102.05
2023-04-01T00:28:54.377Z,98096.39
2023-04-01T00:31:22.978Z,98097.82
2023-04-01T00:33:54.837Z,98096.98
2023-04-01T00:36:24.352Z,98093.92
2023-04-01T00:38:52.844Z,98091.55
2023-04-01T00:41:22.434Z,98092.27
2023-04-01T00:43:52.201Z,98089.84
2023-04-01T00:46:22.823Z,98086.55
2023-04-01T00:48:55.850Z,98086.01
2023-04-01T00:51:26.364Z,98084.48
2023-04-01T00:53:55.441Z,98082.59
2023-04-01T00:56:33.503Z,98086.77
2023-04-01T00:59:03.849Z,98084.55
2023-04-01T01:01:32.336Z,98087.98
2023-04-01T01:04:03.689Z,98093.15
2023-04-01T01:06:40.404Z,98085.02
2023-04-01T01:09:30.417Z,98083.68
2023-04-01T01:12:14.585Z,98090.80
2023-04-01T01:15:24.072Z,98092.06
2023-04-01T01:17:55.813Z,98095.67
2023-04-01T01:20:34.092Z,98090.30
2023-04-01T01:23:19.030Z,98099.85
2023-04-01T01:26:25.745Z,98103.90
2023-04-01T01:29:15.785Z,98094.35
2023-04-01T01:32:16.333Z,98096.92
2023-04-01T01:34:55.484Z,98096.77
2023-04-01T01:37:25.050Z,98099.88
2023-04-01T01:40:00.045Z,98107.60
2023-04-01T01:42:28.509Z,98112.95
2023-04-01T01:44:58.591Z,98115.60
2023-04-01T01:47:26.851Z,98116.30
2023-04-01T01:49:55.476Z,98115.43
2023-04-01T01:52:24.435Z,98118.84
2023-04-01T01:54:54.632Z,98115.50
2023-04-01T01:57:31.656Z,98118.98
2023-04-01T02:00:13.991Z,98116.48
2023-04-01T02:02:43.755Z,98118.16
2023-04-01T02:05:12.550Z,98119.70
2023-04-01T02:07:41.610Z,98121.91
2023-04-01T02:10:10.772Z,98119.58
2023-04-01T02:12:40.394Z,98115.80
2023-04-01T02:15:10.886Z,98117.30
2023-04-01T02:17:43.755Z,98113.52
2023-04-01T02:20:22.797Z,98114.70
2023-04-01T02:22:53.704Z,98116.04
2023-04-01T02:25:25.533Z,98115.83
2023-04-01T02:27:54.308Z,98116.16
2023-04-01T02:30:22.638Z,98115.26
2023-04-01T02:32:51.670Z,98115.67
2023-04-01T02:35:19.942Z,98122.52
2023-04-01T02:37:49.916Z,98114.05
2023-04-01T02:40:21.335Z,98113.30
2023-04-01T02:42:49.499Z,98119.21
2023-04-01T02:45:17.598Z,98119.44
2023-04-01T02:47:46.884Z,98116.13
2023-04-01T02:50:14.894Z,98111.96
2023-04-01T02:52:46.231Z,98113.79
2023-04-01T02:55:16.007Z,98107.03
2023-04-01T02:57:46.483Z,98110.03
2023-04-01T03:00:15.753Z,98109.70
2023-04-01T03:02:45.361Z,98102.21
2023-04-01T03:05:13.893Z,98106.31
2023-04-01T03:07:44.838Z,98096.81
2023-04-01T03:10:13.105Z,98097.94
2023-04-01T03:12:43.691Z,98101.41
2023-04-01T03:15:12.972Z,98100.95
2023-04-01T03:17:42.576Z,98108.85
2023-04-01T03:20:11.853Z,98106.88
2023-04-01T03:22:42.980Z,98105.52
2023-04-01T03:25:11.663Z,98109.04
2023-04-01T03:27:40.432Z,98110.59
2023-04-01T03:30:10.684Z,98115.33
2023-04-01T03:32:43.535Z,98122.83
2023-04-01T03:35:12.448Z,98115.02
2023-04-01T03:37:41.393Z,98121.03
2023-04-01T03:40:11.653Z,98115.98
2023-04-01T03:42:40.563Z,98117.34
2023-04-01T03:45:13.094Z,98122.30
2023-04-01T03:47:42.904Z,98132.71
2023-04-01T03:50:11.716Z,98132.48
2023-04-01T03:52:41.566Z,98133.16
2023-04-01T03:55:09.920Z,98126.94
2023-04-01T03:57:43.401Z,98137.05
2023-04-01T04:00:17.487Z,98139.40
2023-04-01T04:02:47.956Z,98145.57
2023-04-01T04:05:21.048Z,98143.98
2023-04-01T04:07:49.616Z,98144.84
2023-04-01T04:10:18.547Z,98153.67
2023-04-01T04:12:46.554Z,98161.09
2023-04-01T04:15:14.917Z,98167.70
2023-04-01T04:17:45.565Z,98168.60
2023-04-01T04:20:18.068Z,98169.55
2023-04-01T04:22:46.650Z,98168.36
2023-04-01T04:25:15.460Z,98162.30
2023-04-01T04:27:45.143Z,98150.64
2023-04-01T04:30:14.819Z,98153.86
2023-04-01T04:32:43.278Z,98165.04
2023-04-01T04:35:12.510Z,98155.42
2023-04-01T04:37:47.883Z,98155.23
2023-04-01T04:40:16.378Z,98153.13
2023-04-01T04:42:44.605Z,98150.27
2023-04-01T04:45:14.522Z,98150.09
2023-04-01T04:47:49.236Z,98152.09
2023-04-01T04:50:19.804Z,98149.89
2023-04-01T04:52:52.094Z,98147.75
2023-04-01T04:55:21.310Z,98144.58
2023-04-01T04:57:55.624Z,98147.79
2023-04-01T05:00:23.884Z,98141.70
2023-04-01T05:03:01.645Z,98136.70
2023-04-01T05:05:30.392Z,98141.55
2023-04-01T05:07:59.561Z,98139.13
2023-04-01T05:10:30.799Z,98134.23
2023-04-01T05:12:59.637Z,98135.54
2023-04-01T05:15:27.886Z,98128.64
2023-04-01T05:17:56.653Z,98135.50
2023-04-01T05:20:25.964Z,98140.76
2023-04-01T05:22:58.854Z,98141.91
2023-04-01T05:25:27.021Z,98145.19
2023-04-01T05:27:57.557Z,98144.16
2023-04-01T05:30:26.552Z,98148.53
2023-04-01T05:33:18.382Z,98149.20
2023-04-01T05:35:46.647Z,98155.39
2023-04-01T05:38:17.079Z,98163.21
2023-04-01T05:40:45.764Z,98163.99
2023-04-01T05:43:14.247Z,98160.61
2023-04-01T05:45:42.856Z,98162.99
2023-04-01T05:48:14.492Z,98165.98
2023-04-01T05:50:45.000Z,98168.19
2023-04-01T05:53:14.131Z,98164.95
2023-04-01T05:55:44.132Z,98163.98
2023-04-01T05:58:12.739Z,98160.34
2023-04-01T06:00:41.511Z,98173.51
2023-04-01T06:03:29.473Z,98171.23
2023-04-01T06:05:57.735Z,98169.95
2023-04-01T06:08:26.461Z,98174.77
2023-04-01T06:11:25.741Z,98179.92
2023-04-01T06:14:10.766Z,98176.16
2023-04-01T06:16:45.882Z,98168.79
2023-04-01T06:19:45.287Z,98160.39
2023-04-01T06:22:49.072Z,98161.74
2023-04-01T06:25:29.821Z,98154.55
2023-04-01T06:28:21.290Z,98157.55
2023-04-01T06:31:17.962Z,98144.04
2023-04-01T06:33:50.324Z,98146.60
2023-04-01T06:36:43.853Z,98144.98
2023-04-01T06:39:20.828Z,98155.94
2023-04-01T06:42:41.842Z,98143.71
2023-04-01T06:45:46.044Z,98145.52
2023-04-01T06:49:13.337Z,98151.02
2023-04-01T06:51:53.210Z,98154.92
2023-04-01T06:54:43.343Z,98154.63
2023-04-01T06:57:45.038Z,98165.80
2023-04-01T07:00:15.726Z,98168.96
2023-04-01T07:03:07.934Z,98164.05
2023-04-01T07:05:37.067Z,98159.10
2023-04-01T07:08:13.870Z,98157.24
2023-04-01T07:10:55.235Z,98160.79
2023-04-01T07:13:54.298Z,98157.88
2023-04-01T07:16:35.635Z,98159.54
2023-04-01T07:19:13.099Z,98162.13
2023-04-01T07:22:29.022Z,98164.75
2023-04-01T07:25:12.559Z,98164.33
2023-04-01T07:27:41.112Z,98164.30
2023-04-01T07:30:20.660Z,98163.00
2023-04-01T07:33:03.512Z,98168.95
2023-04-01T07:36:07.396Z,98163.48
2023-04-01T07:38:47.743Z,98164.67
2023-04-01T07:41:27.508Z,98170.06
2023-04-01T07:44:38.073Z,98171.40
2023-04-01T07:47:27.954Z,98169.24
2023-04-01T07:50:14.972Z,98180.13
2023-04-01T07:52:58.963Z,98180.02
2023-04-01T07:55:33.111Z,98183.16
2023-04-01T07:58:08.143Z,98188.33
2023-04-01T08:00:48.099Z,98189.37
2023-04-01T08:03:24.893Z,98193.17
2023-04-01T08:06:24.107Z,98194.33
2023-04-01T08:09:24.414Z,98189.28
2023-04-01T08:12:29.785Z,98198.90
2023-04-01T08:15:13.103Z,98197.48
2023-04-01T08:18:16.644Z,98200.99
2023-04-01T08:20:54.006Z,98207.98
2023-04-01T08:23:23.398Z,98193.60
2023-04-01T08:26:12.155Z,98198.28
2023-04-01T08:29:18.452Z,98206.34
2023-04-01T08:31:59.528Z,98206.69
2023-04-01T08:34:34.840Z,98198.75
2023-04-01T08:37:06.739Z,98201.46
2023-04-01T08:39:53.928Z,98209.07
2023-04-01T08:42:37.336Z,98197.25
2023-04-01T08:45:21.611Z,98208.54
2023-04-01T08:48:34.231Z,98215.50
2023-04-01T08:51:12.752Z,98204.75
2023-04-01T08:53:53.705Z,98204.33
2023-04-01T08:57:23.041Z,98211.92
2023-04-01T09:00:26.925Z,98201.09
2023-04-01T09:03:50.125Z,98196.79
2023-04-01T09:06:34.268Z,98193.73
2023-04-01T09:09:25.571Z,98186.41
2023-04-01T09:12:07.594Z,98186.27
2023-04-01T09:14:43.742Z,98179.10
2023-04-01T09:17:43.270Z,98178.21
2023-04-01T09:20:50.125Z,98182.42
2023-04-01T09:23:30.677Z,98177.86
2023-04-01T09:26:10.839Z,98185.05
2023-04-01T09:29:07.871Z,98180.11
2023-04-01T09:32:10.385Z,98184.56
2023-04-01T09:34:57.022Z,98179.32
2023-04-01T09:37:50.389Z,98182.77
2023-04-01T09:40:51.204Z,98195.22
2023-04-01T09:43:34.810Z,98188.62
2023-04-01T09:46:32.331Z,98196.33
2023-04-01T09:49:14.910Z,98193.95
2023-04-01T09:51:43.491Z,98186.73
2023-04-01T09:54:39.216Z,98194.13
2023-04-01T09:57:27.302Z,98181.88
2023-04-01T10:00:28.565Z,98185.42
2023-04-01T10:03:28.411Z,98189.35
2023-04-01T10:06:16.712Z,98185.58
2023-04-01T10:09:08.529Z,98164.11
2023-04-01T10:11:49.262Z,98165.61
2023-04-01T10:14:45.088Z,98163.73
2023-04-01T10:17:32.338Z,98168.17
2023-04-01T10:20:42.420Z,98166.65
2023-04-01T10:23:31.992Z,98172.45
2023-04-01T10:26:14.611Z,98155.55
2023-04-01T10:29:17.797Z,98164.58
2023-04-01T10:32:14.046Z,98156.52
2023-04-01T10:34:49.464Z,98146.70
2023-04-01T10:37:39.241Z,98159.23
2023-04-01T10:40:23.714Z,98147.34
2023-04-01T10:43:59.801Z,98142.51
2023-04-01T10:46:51.256Z,98145.33
2023-04-01T10:49:41.589Z,98148.84
2023-04-01T10:53:07.758Z,98139.23
2023-04-01T10:56:08.684Z,98140.85
2023-04-01T10:59:14.361Z,98156.98
2023-04-01T11:02:46.578Z,98142.33
2023-04-01T11:06:00.559Z,98149.39
2023-04-01T11:08:41.778Z,98143.45
2023-04-01T11:11:40.387Z,98148.23
2023-04-01T11:14:19.502Z,98139.41
2023-04-01T11:17:05.516Z,98139.48
2023-04-01T11:19:51.488Z,98137.52
2023-04-01T11:22:27.262Z,98131.21
2023-04-01T11:25:17.588Z,98145.33
2023-04-01T11:28:17.392Z,98132.21
2023-04-01T11:31:23.757Z,98117.04
2023-04-01T11:34:36.739Z,98115.10
2023-04-01T11:37:27.146Z,98106.23
2023-04-01T11:40:38.832Z,98111.19
2023-04-01T11:43:37.517Z,98109.30
2023-04-01T11:46:54.355Z,98096.50
2023-04-01T11:49:45.147Z,98107.98
2023-04-01T11:52:40.166Z,98111.46
2023-04-01T11:55:16.660Z,98096.27
2023-04-01T11:58:09.855Z,98103.23
2023-04-01T12:00:45.036Z,98106.79
2023-04-01T12:03:44.882Z,98094.35
2023-04-01T12:06:40.016Z,98101.30
2023-04-01T12:09:20.356Z,98092.40
2023-04-01T12:12:02.674Z,98092.82
2023-04-01T12:14:44.473Z,98093.38
2023-04-01T12:17:43.801Z,98089.98
2023-04-01T12:20:43.532Z,98092.19
2023-04-01T12:23:42.419Z,98086.22
2023-04-01T12:26:32.251Z,98094.21
2023-04-01T12:29:15.468Z,98091.84
2023-04-01T12:32:11.654Z,98084.00
2023-04-01T12:34:50.596Z,98091.30
2023-04-01T12:37:37.935Z,98083.84
2023-04-01T12:40:32.010Z,98082.48
2023-04-01T12:43:12.298Z,98078.78
2023-04-01T12:45:55.983Z,98072.94
2023-04-01T12:48:29.017Z,98086.08
2023-04-01T12:51:18.684Z,98073.53
2023-04-01T12:54:09.886Z,98075.14
2023-04-01T12:56:49.622Z,98078.97
2023-04-01T12:59:34.392Z,98089.81
2023-04-01T13:02:08.218Z,98074.80
2023-04-01T13:04:52.406Z,98068.81
2023-04-01T13:07:40.919Z,98065.59
2023-04-01T13:10:33.925Z,98076.27
2023-04-01T13:13:38.385Z,98072.83
2023-04-01T13:16:16.381Z,98076.60
2023-04-01T13:19:05.967Z,98072.88
2023-04-01T13:22:12.124Z,98074.65
2023-04-01T13:25:01.613Z,98065.29
2023-04-01T13:27:38.880Z,98056.95
2023-04-01T13:30:22.115Z,98066.48
2023-04-01T13:33:12.356Z,98063.13
2023-04-01T13:35:52.332Z,98058.37
2023-04-01T13:38:47.145Z,98065.14
2023-04-01T13:41:21.803Z,98068.49
2023-04-01T13:44:00.276Z,98066.16
2023-04-01T13:46:53.650Z,98065.46
2023-04-01T13:49:42.339Z,98056.03
2023-04-01T13:52:36.546Z,98063.10
2023-04-01T13:55:25.660Z,98068.71
2023-04-01T13:58:15.646Z,98058.14
2023-04-01T14:00:46.692Z,98067.92
2023-04-01T14:03:44.137Z,98056.14
2023-04-01T14:06:24.814Z,98062.13
2023-04-01T14:09:17.831Z,98062.88
2023-04-01T14:11:53.552Z,98062.23
2023-04-01T14:14:30.639Z,98085.19
2023-04-01T14:17:11.609Z,98069.58
2023-04-01T14:20:04.296Z,98080.66
2023-04-01T14:22:42.188Z,98084.02
2023-04-01T14:25:48.602Z,98084.91
2023-04-01T14:28:34.284Z,98078.66
2023-04-01T14:31:24.310Z,98074.55
2023-04-01T14:34:25.360Z,98066.15
2023-04-01T14:37:14.135Z,98071.71
2023-04-01T14:40:19.959Z,98082.06
2023-04-01T14:43:12.241Z,98085.80
2023-04-01T14:46:02.316Z,98083.20
2023-04-01T14:48:52.473Z,98087.17
2023-04-01T14:51:29.440Z,98074.41
2023-04-01T14:54:11.693Z,98076.37
2023-04-01T14:56:41.111Z,98079.23
2023-04-01T14:59:23.542Z,98088.30
2023-04-01T15:02:02.713Z,98096.36
2023-04-01T15:04:57.261Z,98085.04
2023-04-01T15:07:46.307Z,98091.96
2023-04-01T15:10:32.415Z,98094.73
2023-04-01T15:13:29.812Z,98088.90
2023-04-01T15:16:04.070Z,98086.73
2023-04-01T15:18:51.754Z,98098.31
2023-04-01T15:21:45.971Z,98085.69
2023-04-01T15:24:38.024Z,98097.73
2023-04-01T15:27:23.560Z,98095.84
2023-04-01T15:30:15.914Z,98100.98
2023-04-01T15:33:08.166Z,98105.11
2023-04-01T15:36:17.846Z,98115.06
2023-04-01T15:39:02.665Z,98121.86
2023-04-01T15:41:41.377Z,98116.87
2023-04-01T15:44:38.444Z,98126.57
2023-04-01T15:47:25.818Z,98120.07
2023-04-01T15:50:08.702Z,98126.21
2023-04-01T15:52:56.950Z,98126.90
2023-04-01T15:55:29.107Z,98129.08
2023-04-01T15:58:36.438Z,98133.89
2023-04-01T16:01:24.338Z,98144.16
2023-04-01T16:04:17.658Z,98145.14
2023-04-01T16:07:23.873Z,98145.36
2023-04-01T16:10:44.413Z,98149.92
2023-04-01T16:13:45.199Z,98156.51
2023-04-01T16:16:51.032Z,98151.16
2023-04-01T16:20:04.557Z,98151.48
2023-04-01T16:22:41.692Z,98158.73
2023-04-01T16:25:40.690Z,98158.67
2023-04-01T16:28:33.497Z,98160.73
2023-04-01T16:31:06.326Z,98168.76
2023-04-01T16:33:43.192Z,98162.98
2023-04-01T16:36:21.210Z,98169.30
2023-04-01T16:39:09.810Z,98170.38
2023-04-01T16:42:15.715Z,98170.86
2023-04-01T16:45:09.539Z,98184.27
2023-04-01T16:47:46.572Z,98181.83
2023-04-01T16:50:18.954Z,98179.73
2023-04-01T16:53:01.010Z,98187.53
2023-04-01T16:55:43.189Z,98182.05
2023-04-01T16:58:11.882Z,98185.30
2023-04-01T17:00:51.246Z,98180.84
2023-04-01T17:03:48.032Z,98188.21
2023-04-01T17:06:41.006Z,98193.09
2023-04-01T17:09:43.242Z,98194.85
2023-04-01T17:12:39.942Z,98194.98
2023-04-01T17:15:30.514Z,98202.48
2023-04-01T17:18:13.205Z,98203.28
2023-04-01T17:20:57.183Z,98200.56
2023-04-01T17:23:37.532Z,98198.99
2023-04-01T17:26:28.852Z,98194.75
2023-04-01T17:29:25.896Z,98196.85
2023-04-01T17:32:17.041Z,98200.98
2023-04-01T17:35:20.147Z,98202.00
2023-04-01T17:38:03.273Z,98211.17
2023-04-01T17:40:58.679Z,98208.13
2023-04-01T17:43:59.757Z,98210.02
2023-04-01T17:46:46.216Z,98209.02
2023-04-01T17:49:28.575Z,98206.67
2023-04-01T17:52:20.893Z,98207.61
2023-04-01T17:55:15.520Z,98204.30
2023-04-01T17:58:25.889Z,98203.27
2023-04-01T18:01:13.111Z,98206.39
2023-04-01T18:04:07.413Z,98203.80
2023-04-01T18:06:39.342Z,98206.30
2023-04-01T18:09:19.127Z,98203.67
2023-04-01T18:12:06.382Z,98209.91
2023-04-01T18:15:07.644Z,98206.60
2023-04-01T18:17:58.420Z,98210.92
2023-04-01T18:20:36.883Z,98209.98
2023-04-01T18:23:20.790Z,98207.67
2023-04-01T18:25:50.510Z,98208.82
2023-04-01T18:28:23.674Z,98205.14
2023-04-01T18:30:56.945Z,98207.89
2023-04-01T18:33:33.179Z,98201.88
2023-04-01T18:36:17.248Z,98203.58
2023-04-01T18:38:58.236Z,98206.05
2023-04-01T18:41:48.750Z,98207.61
2023-04-01T18:44:41.995Z,98201.52
2023-04-01T18:47:26.964Z,98210.14
2023-04-01T18:50:17.620Z,98209.77
2023-04-01T18:52:46.559Z,98217.88
2023-04-01T18:55:30.881Z,98212.75
2023-04-01T18:58:24.506Z,98212.19
2023-04-01T19:00:56.756Z,98212.09
2023-04-01T19:03:47.399Z,98209.67
2023-04-01T19:06:20.093Z,98208.70
2023-04-01T19:08:48.083Z,98209.55
2023-04-01T19:11:43.849Z,98204.52
2023-04-01T19:14:31.352Z,98200.27
2023-04-01T19:17:11.643Z,98210.89
2023-04-01T19:19:43.233Z,98203.54
2023-04-01T19:22:23.069Z,98206.98
2023-04-01T19:25:27.797Z,98200.69
2023-04-01T19:28:34.129Z,98205.92
2023-04-01T19:31:09.854Z,98207.17
2023-04-01T19:34:02.465Z,98202.91
2023-04-01T19:36:31.743Z,98206.31
2023-04-01T19:39:25.125Z,98197.24
2023-04-01T19:42:08.352Z,98196.95
2023-04-01T19:44:41.928Z,98199.52
2023-04-01T19:47:48.141Z,98205.03
2023-04-01T19:50:47.833Z,98209.96
2023-04-01T19:53:29.024Z,98206.81
2023-04-01T19:56:03.203Z,98213.66
2023-04-01T19:58:44.163Z,98204.95
2023-04-01T20:01:34.719Z,98215.20
2023-04-01T20:04:35.214Z,98212.61
2023-04-01T20:07:10.549Z,98217.63
2023-04-01T20:09:59.924Z,98215.05
2023-04-01T20:12:35.794Z,98221.84
2023-04-01T20:15:37.073Z,98213.94
2023-04-01T20:18:20.477Z,98206.20
2023-04-01T20:21:03.575Z,98212.16
2023-04-01T20:23:43.068Z,98213.24
2023-04-01T20:26:15.259Z,98218.89
2023-04-01T20:29:08.416Z,98217.53
2023-04-01T20:31:48.778Z,98218.20
2023-04-01T20:34:36.321Z,98217.89
2023-04-01T20:37:13.532Z,98224.40
2023-04-01T20:39:59.523Z,98223.36
2023-04-01T20:42:46.766Z,98218.70
2023-04-01T20:45:33.876Z,98217.66
2023-04-01T20:48:32.881Z,98216.04
2023-04-01T20:51:11.261Z,98225.47
2023-04-01T20:53:44.826Z,98214.74
2023-04-01T20:56:50.901Z,98221.10
2023-04-01T20:59:36.263Z,98224.81
2023-04-01T21:02:26.169Z,98215.91
2023-04-01T21:05:27.876Z,98221.83
2023-04-01T21:08:45.765Z,98223.66
2023-04-01T21:11:34.430Z,98213.84
2023-04-01T21:14:25.943Z,98223.58
2023-04-01T21:17:08.114Z,98220.83
2023-04-01T21:19:55.229Z,98221.63
2023-04-01T21:22:35.966Z,98228.01
2023-04-01T21:25:28.479Z,98232.02
2023-04-01T21:28:15.692Z,98230.40
2023-04-01T21:31:16.319Z,98228.88
2023-04-01T21:33:49.170Z,98224.80
2023-04-01T21:36:41.817Z,98222.94
2023-04-01T21:39:32.605Z,98226.04
2023-04-01T21:42:20.669Z,98225.88
2023-04-01T21:44:54.129Z,98221.64
2023-04-01T21:48:10.719Z,98228.20
2023-04-01T21:51:10.296Z,98222.02
2023-04-01T21:54:09.268Z,98222.85
2023-04-01T21:57:01.608Z,98227.57
2023-04-01T22:00:14.956Z,98229.07
2023-04-01T22:03:10.393Z,98226.15
2023-04-01T22:06:08.419Z,98224.35
2023-04-01T22:09:04.567Z,98235.36
2023-04-01T22:11:53.195Z,98229.70
2023-04-01T22:14:32.736Z,98231.70
2023-04-01T22:17:47.359Z,98231.14
2023-04-01T22:20:58.418Z,98231.25
2023-04-01T22:23:30.762Z,98228.16
2023-04-01T22:26:27.808Z,98230.56
2023-04-01T22:29:48.441Z,98233.11
2023-04-01T22:32:20.729Z,98229.90
2023-04-01T22:35:28.219Z,98234.36
2023-04-01T22:38:18.697Z,98232.15
2023-04-01T22:41:06.763Z,98231.53
2023-04-01T22:43:43.130Z,98226.17
2023-04-01T22:46:35.525Z,98225.84
2023-04-01T22:49:10.680Z,98228.34
2023-04-01T22:51:42.470Z,98223.68
2023-04-01T22:54:23.126Z,98221.51
2023-04-01T22:57:01.580Z,98224.48
2023-04-01T22:59:43.764Z,98227.17
2023-04-01T23:02:28.624Z,98232.89
2023-04-01T23:04:59.354Z,98229.73
2023-04-01T23:07:47.904Z,98231.67
2023-04-01T23:10:47.432Z,98227.18
2023-04-01T23:13:25.817Z,98227.20
2023-04-01T23:15:54.060Z,98231.14
2023-04-01T23:18:23.267Z,98223.78
2023-04-01T23:20:56.198Z,98225.25
2023-04-01T23:23:47.450Z,98222.99
2023-04-01T23:26:19.794Z,98226.27
2023-04-01T23:28:51.936Z,98221.20
2023-04-01T23:31:39.238Z,98222.95
2023-04-01T23:34:13.482Z,98220.77
2023-04-01T23:36:47.006Z,98220.15
2023-04-01T23:39:24.126Z,98219.27
2023-04-01T23:41:54.152Z,98225.63
2023-04-01T23:44:22.225Z,98223.05
2023-04-01T23:46:52.718Z,98223.27
2023-04-01T23:49:26.628Z,98225.50
2023-04-01T23:51:57.615Z,98224.78
2023-04-01T23:54:34.530Z,98224.82
2023-04-01T23:57:07.330Z,98222.39
2023-04-01T23:59:36.504Z,98224.48
